Time;durP1;ratioP1;P1;durP2;ratioP2;P2;SDS_P1;SDS_P2;PMS_P1;PMS_P2;Temp;Humidity;BMP_temperature;BMP_pressure;BME280_temperature;BME280_humidity;BME280_pressure;Samples;Min_cycle;Max_cycle;Signal;HPM_P1;HPM_P2
2021/10/14 00:02:33;;;;;;;12.20;8.08;;;;;;;7.52;89.85;100939.58;2756988;86;21054;-78
2021/10/14 00:06:34;;;;;;;10.53;6.28;;;;;;;7.53;90.81;100936.44;2702311;86;21052;-77
2021/10/14 00:10:36;;;;;;;9.43;7.05;;;;;;;7.58;90.32;100939.20;2714290;87;21047;-78
2021/10/14 00:14:37;;;;;;;11.57;8.68;;;;;;;7.57;89.83;100934.85;2714119;87;21085;-77
2021/10/14 00:18:39;;;;;;;11.10;6.05;;;;;;;7.60;91.78;100942.23;2714347;87;21019;-78
2021/10/14 00:22:41;;;;;;;7.83;6.12;;;;;;;7.64;91.28;100934.02;2726697;86;21066;-76
2021/10/14 00:26:42;;;;;;;11.03;7.33;;;;;;;7.68;90.20;100937.35;2729599;87;21307;-78
2021/10/14 00:30:44;;;;;;;9.60;6.60;;;;;;;7.70;91.17;100941.59;2729680;87;21087;-78
2021/10/14 00:34:46;;;;;;;8.18;5.55;;;;;;;7.87;93.25;100930.47;2729687;87;21034;-77
2021/10/14 00:38:47;;;;;;;10.72;6.35;;;;;;;8.05;93.22;100931.63;2729917;87;21060;-78
2021/10/14 00:42:49;;;;;;;9.03;7.28;;;;;;;8.14;92.51;100935.02;2726887;85;21083;-75
2021/10/14 00:46:53;;;;;;;11.65;7.47;;;;;;;8.25;92.32;100938.34;2709709;86;20990;-76
2021/10/14 00:50:55;;;;;;;8.23;6.95;;;;;;;8.27;90.91;100933.82;2727642;87;21030;-75
2021/10/14 00:54:57;;;;;;;6.50;5.28;;;;;;;8.34;92.33;100929.83;2785425;85;21038;-75
2021/10/14 00:59:01;;;;;;;10.15;7.15;;;;;;;8.42;91.15;100928.87;2778502;85;21100;-77
2021/10/14 01:03:03;;;;;;;12.07;7.62;;;;;;;8.40;90.87;100929.44;2700479;88;21012;-76
2021/10/14 01:07:05;;;;;;;9.55;5.78;;;;;;;8.40;89.91;100920.16;2674708;87;21111;-76
2021/10/14 01:11:09;;;;;;;9.00;7.33;;;;;;;8.42;90.05;100920.91;2730652;87;21019;-77
2021/10/14 01:15:25;;;;;;;6.55;5.72;;;;;;;8.41;90.13;100912.58;2674627;89;21083;-76
2021/10/14 01:19:27;;;;;;;;;;;;;;;8.40;89.85;100914.86;2733009;87;21038;-77
2021/10/14 01:23:28;;;;;;;8.03;6.87;;;;;;;8.40;89.45;100912.20;2730283;86;20165;-75
2021/10/14 01:27:30;;;;;;;14.98;9.68;;;;;;;8.28;89.02;100901.06;2730332;86;21106;-77
2021/10/14 01:31:32;;;;;;;21.17;12.75;;;;;;;8.26;89.63;100903.80;2728420;87;21065;-76
2021/10/14 01:35:34;;;;;;;18.67;10.13;;;;;;;8.24;88.87;100902.17;2721109;85;21031;-75
2021/10/14 01:39:35;;;;;;;11.38;8.83;;;;;;;8.19;89.25;100894.53;2716402;86;21064;-75
2021/10/14 01:43:37;;;;;;;17.87;10.98;;;;;;;8.12;87.83;100890.09;2728097;87;21083;-76
2021/10/14 01:47:39;;;;;;;19.98;12.25;;;;;;;8.00;88.37;100890.38;2728223;86;21040;-75
2021/10/14 01:51:40;;;;;;;27.30;13.45;;;;;;;8.03;89.82;100895.94;2728236;86;21127;-75
2021/10/14 01:55:42;;;;;;;15.05;8.40;;;;;;;8.03;88.51;100888.48;2728372;86;21036;-77
2021/10/14 01:59:44;;;;;;;15.58;7.83;;;;;;;8.00;88.93;100889.05;2728420;86;21107;-76
2021/10/14 02:03:46;;;;;;;14.33;7.85;;;;;;;8.02;89.54;100887.61;2728586;86;21071;-76
2021/10/14 02:07:47;;;;;;;13.03;7.65;;;;;;;8.01;89.06;100880.61;2728574;86;21104;-76
2021/10/14 02:11:49;;;;;;;10.05;6.78;;;;;;;7.98;88.06;100878.16;2728811;86;21119;-77
2021/10/14 02:15:51;;;;;;;7.75;6.95;;;;;;;7.89;87.18;100878.73;2728716;86;21060;-77
2021/10/14 02:19:53;;;;;;;12.25;8.43;;;;;;;7.84;88.01;100881.16;2728966;86;21111;-75
2021/10/14 02:23:54;;;;;;;10.98;6.83;;;;;;;7.87;89.04;100882.79;2733733;85;21077;-74
2021/10/14 02:27:56;;;;;;;11.05;7.65;;;;;;;7.84;87.59;100882.49;2762638;85;21086;-77
2021/10/14 02:31:58;;;;;;;9.55;6.80;;;;;;;7.83;88.81;100883.92;2764153;86;21019;-76
2021/10/14 02:35:59;;;;;;;11.50;7.20;;;;;;;7.85;89.54;100885.52;2764203;86;21102;-76
2021/10/14 02:40:01;;;;;;;9.93;7.37;;;;;;;7.90;88.43;100889.22;2764719;86;21031;-75
2021/10/14 02:44:03;;;;;;;12.23;7.50;;;;;;;7.91;88.27;100888.77;2764193;86;21015;-77
2021/10/14 02:48:06;;;;;;;8.63;7.58;;;;;;;7.91;87.95;100894.89;2764411;86;21544;-75
2021/10/14 02:52:07;;;;;;;11.48;7.80;;;;;;;7.93;89.19;100890.84;2765120;86;21011;-78
2021/10/14 02:56:09;;;;;;;11.83;7.05;;;;;;;7.99;89.77;100890.45;2763145;85;21040;-76
2021/10/14 03:00:12;;;;;;;7.58;5.45;;;;;;;8.07;89.69;100892.63;2763167;84;21067;-74
2021/10/14 03:04:14;;;;;;;15.00;7.60;;;;;;;8.10;88.96;100884.49;2765963;84;21063;-77
2021/10/14 03:08:15;;;;;;;9.98;8.13;;;;;;;8.12;88.66;100883.46;2765407;84;21059;-78
2021/10/14 03:12:17;;;;;;;11.75;7.70;;;;;;;8.14;88.11;100878.91;2766588;84;21046;-77
2021/10/14 03:16:19;;;;;;;10.40;6.78;;;;;;;8.22;89.85;100876.25;2767453;86;21341;-77
2021/10/14 03:20:21;;;;;;;9.98;6.92;;;;;;;8.26;88.38;100876.46;2764177;85;21111;-77
2021/10/14 03:24:24;;;;;;;13.65;7.40;;;;;;;8.21;87.29;100875.88;2741544;85;20986;-75
2021/10/14 03:28:25;;;;;;;8.85;6.45;;;;;;;8.24;89.05;100882.30;2674531;89;21123;-76
2021/10/14 03:32:27;;;;;;;10.65;7.92;;;;;;;8.24;88.01;100886.28;2730335;86;21059;-76
2021/10/14 03:36:29;;;;;;;12.18;7.45;;;;;;;8.22;88.18;100884.20;2705214;87;21012;-76
2021/10/14 03:40:31;;;;;;;9.55;6.60;;;;;;;8.23;88.01;100889.42;2718608;87;21038;-75
2021/10/14 03:44:32;;;;;;;8.95;6.45;;;;;;;8.20;88.08;100882.13;2720446;87;20995;-75
2021/10/14 03:48:34;;;;;;;6.50;5.87;;;;;;;8.20;87.72;100890.07;2675186;88;21086;-76
2021/10/14 03:52:36;;;;;;;6.65;5.75;;;;;;;8.22;88.42;100884.20;2721257;87;20987;-75
2021/10/14 03:56:38;;;;;;;7.92;6.25;;;;;;;8.27;88.10;100876.84;2730886;87;21050;-76
2021/10/14 04:00:40;;;;;;;6.67;5.30;;;;;;;8.32;89.88;100887.13;2720731;87;21307;-75
2021/10/14 04:04:41;;;;;;;8.65;5.58;;;;;;;8.40;89.20;100890.16;2720856;87;21079;-78
2021/10/14 04:08:43;;;;;;;10.20;7.42;;;;;;;8.47;89.06;100886.66;2728246;87;21070;-72
2021/10/14 04:12:44;;;;;;;8.53;6.37;;;;;;;8.44;88.75;100888.52;2720079;87;21039;-71
2021/10/14 04:16:46;;;;;;;7.10;5.70;;;;;;;8.43;89.24;100886.82;2718727;85;21019;-72
2021/10/14 04:20:50;;;;;;;7.08;5.97;;;;;;;8.36;88.70;100892.14;2717781;83;21102;-72
2021/10/14 04:24:51;;;;;;;6.53;5.90;;;;;;;8.34;89.53;100891.85;2682660;86;21083;-75
2021/10/14 04:28:53;;;;;;;8.43;6.47;;;;;;;8.38;89.79;100895.55;2703832;86;21071;-77
2021/10/14 04:32:55;;;;;;;11.90;6.12;;;;;;;8.48;90.87;100894.98;2691405;86;21035;-75
2021/10/14 04:36:57;;;;;;;9.38;6.08;;;;;;;8.55;90.11;100890.55;2706314;83;21051;-75
2021/10/14 04:40:59;;;;;;;10.00;6.08;;;;;;;8.54;90.16;100887.98;2662088;89;21077;-81
2021/10/14 04:45:00;;;;;;;7.55;5.45;;;;;;;8.50;90.07;100884.67;2617852;89;21086;-74
2021/10/14 04:49:03;;;;;;;10.38;6.35;;;;;;;8.51;91.29;100894.33;2659388;88;21000;-78
2021/10/14 04:53:04;;;;;;;10.15;6.00;;;;;;;8.61;91.24;100889.28;2617569;91;21075;-78
2021/10/14 04:57:06;;;;;;;5.42;4.60;;;;;;;8.69;91.73;100892.77;2661502;88;21066;-73
2021/10/14 05:01:08;;;;;;;8.30;5.17;;;;;;;8.82;92.87;100891.50;2661328;89;21063;-76
2021/10/14 05:05:09;;;;;;;8.93;4.72;;;;;;;8.92;92.06;100889.10;2661855;86;21035;-78
2021/10/14 05:09:11;;;;;;;6.97;4.47;;;;;;;8.98;91.77;100890.05;2661778;89;21027;-74
2021/10/14 05:13:13;;;;;;;7.55;4.55;;;;;;;8.93;90.54;100885.03;2661500;89;21119;-79
2021/10/14 05:17:14;;;;;;;5.97;4.42;;;;;;;8.77;90.38;100879.89;2661772;89;21094;-75
2021/10/14 05:21:16;;;;;;;5.05;4.12;;;;;;;8.76;91.42;100884.81;2665704;86;21055;-74
2021/10/14 05:25:18;;;;;;;5.97;5.05;;;;;;;8.78;90.96;100876.74;2660480;88;21091;-77
2021/10/14 05:29:20;;;;;;;8.75;6.03;;;;;;;8.79;90.67;100879.31;2660327;89;21043;-76
2021/10/14 05:33:21;;;;;;;8.33;5.05;;;;;;;8.77;90.54;100883.00;2660150;89;21086;-75
2021/10/14 05:37:23;;;;;;;6.40;5.05;;;;;;;8.78;90.72;100885.56;2660295;89;21059;-73
2021/10/14 05:41:25;;;;;;;8.78;4.95;;;;;;;8.81;90.44;100883.17;2660304;89;21119;-77
2021/10/14 05:45:26;;;;;;;4.75;3.95;;;;;;;8.83;90.44;100885.25;2660046;87;21091;-73
2021/10/14 05:49:28;;;;;;;5.60;4.95;;;;;;;8.96;91.41;100887.48;2660641;89;21039;-78
2021/10/14 05:53:30;;;;;;;5.70;4.20;;;;;;;8.99;90.92;100891.25;2660564;87;21103;-75
2021/10/14 05:57:31;;;;;;;6.12;4.92;;;;;;;9.07;90.64;100886.77;2660789;86;21082;-75
2021/10/14 06:01:33;;;;;;;7.67;4.62;;;;;;;9.11;89.94;100876.81;2660873;85;21051;-75
2021/10/14 06:05:35;;;;;;;3.67;3.37;;;;;;;9.09;89.25;100884.03;2660327;88;21035;-76
2021/10/14 06:09:36;;;;;;;6.95;3.75;;;;;;;9.06;89.51;100878.93;2660063;87;21008;-74
2021/10/14 06:13:38;;;;;;;4.17;2.90;;;;;;;9.04;89.30;100879.48;2660080;88;21037;-76
2021/10/14 06:17:40;;;;;;;5.65;3.27;;;;;;;9.03;89.64;100882.62;2660333;89;21032;-75
2021/10/14 06:21:43;;;;;;;4.70;3.15;;;;;;;9.07;90.25;100881.47;2659460;89;21005;-75
2021/10/14 06:25:44;;;;;;;4.37;3.62;;;;;;;9.17;90.45;100882.20;2756428;86;21059;-73
2021/10/14 06:29:46;;;;;;;6.87;4.08;;;;;;;9.24;90.15;100880.83;2762223;86;21079;-72
2021/10/14 06:33:48;;;;;;;6.92;4.33;;;;;;;9.28;89.79;100885.84;2762582;86;21066;-73
2021/10/14 06:37:49;;;;;;;4.25;3.55;;;;;;;9.27;89.90;100886.80;2762525;86;21011;-76
2021/10/14 06:41:54;;;;;;;4.08;3.67;;;;;;;9.26;89.42;100883.77;2762481;83;21042;-72
2021/10/14 06:45:54;;;;;;;4.95;2.87;;;;;;;9.31;89.72;100894.05;2762199;86;21024;-74
2021/10/14 06:49:56;;;;;;;5.70;4.40;;;;;;;9.36;89.64;100898.60;2762135;86;21043;-75
2021/10/14 06:53:58;;;;;;;5.67;4.40;;;;;;;9.39;89.47;100894.87;2762007;86;21063;-75
2021/10/14 06:57:59;;;;;;;6.83;4.37;;;;;;;9.47;89.94;100885.92;2762249;85;21063;-72
2021/10/14 07:02:01;;;;;;;8.70;5.55;;;;;;;9.58;90.74;100878.06;2761884;86;21058;-72
2021/10/14 07:06:03;;;;;;;6.12;4.28;;;;;;;9.74;90.49;100881.00;2761997;86;20995;-72
2021/10/14 07:10:08;;;;;;;9.28;4.03;;;;;;;9.83;89.65;100887.48;2761863;86;21058;-72
2021/10/14 07:14:09;;;;;;;4.62;3.85;;;;;;;9.90;88.43;100888.75;2761794;86;21600;-72
2021/10/14 07:18:11;;;;;;;6.20;4.33;;;;;;;9.92;88.30;100892.14;2761850;86;21043;-71
2021/10/14 07:22:14;;;;;;;7.72;4.28;;;;;;;9.96;88.31;100887.48;2762056;86;21028;-71
2021/10/14 07:26:16;;;;;;;4.97;4.03;;;;;;;9.99;88.64;100877.49;2761921;86;21023;-72
2021/10/14 07:30:18;;;;;;;7.25;5.78;;;;;;;10.03;89.04;100876.81;2761592;86;21035;-71
2021/10/14 07:34:19;;;;;;;7.08;5.28;;;;;;;10.10;89.82;100874.08;2761654;86;21100;-71
2021/10/14 07:38:22;;;;;;;6.17;5.47;;;;;;;10.23;89.89;100879.87;2761910;86;21097;-71
2021/10/14 07:42:23;;;;;;;6.50;5.90;;;;;;;10.28;88.97;100879.05;2742451;86;21043;-71
2021/10/14 07:46:25;;;;;;;8.20;6.35;;;;;;;10.33;89.24;100880.89;2717388;87;21055;-72
2021/10/14 07:50:27;;;;;;;12.07;5.35;;;;;;;10.42;89.77;100879.42;2717192;87;21129;-71
2021/10/14 07:54:29;;;;;;;14.45;6.12;;;;;;;10.53;89.44;100878.64;2717572;87;20972;-71
2021/10/14 07:58:31;;;;;;;6.92;4.83;;;;;;;10.66;89.50;100883.45;2717348;87;21031;-71
2021/10/14 08:02:32;;;;;;;7.50;6.10;;;;;;;10.80;88.97;100889.55;2717445;87;21107;-71
2021/10/14 08:06:34;;;;;;;12.23;6.28;;;;;;;10.85;88.15;100887.43;2717173;87;21461;-71
2021/10/14 08:10:36;;;;;;;13.68;6.70;;;;;;;10.89;88.09;100883.57;2717248;87;21683;-71
2021/10/14 08:14:38;;;;;;;8.63;6.58;;;;;;;11.04;88.63;100886.07;2716682;87;21114;-72
2021/10/14 08:18:39;;;;;;;6.70;5.60;;;;;;;11.18;89.03;100887.20;2717432;87;21015;-71
2021/10/14 08:22:41;;;;;;;7.67;5.80;;;;;;;11.29;88.98;100885.05;2724141;86;21043;-71
2021/10/14 08:26:43;;;;;;;8.68;6.10;;;;;;;11.39;88.50;100879.88;2734729;86;21042;-72
2021/10/14 08:30:49;;;;;;;8.65;6.60;;;;;;;11.41;88.46;100886.80;2767893;86;20971;-71
2021/10/14 08:34:51;;;;;;;14.70;7.62;;;;;;;11.41;88.72;100879.31;2751712;86;21032;-71
2021/10/14 08:38:52;;;;;;;8.60;7.62;;;;;;;11.41;88.46;100880.64;2748303;85;21059;-71
2021/10/14 08:43:01;;;;;;;8.08;6.58;;;;;;;11.44;89.50;100881.73;2749713;85;21067;-72
2021/10/14 08:47:02;;;;;;;7.10;5.55;;;;;;;11.54;89.93;100873.39;2752374;86;21059;-73
2021/10/14 08:51:04;;;;;;;9.00;5.85;;;;;;;11.58;90.25;100862.85;2749655;86;21054;-72
2021/10/14 08:55:07;;;;;;;6.67;5.42;;;;;;;11.65;90.06;100865.06;2766543;86;20987;-72
2021/10/14 08:59:09;;;;;;;9.63;5.95;;;;;;;11.66;90.09;100851.61;2766445;86;21057;-72
2021/10/14 09:03:26;;;;;;;8.58;6.00;;;;;;;11.73;90.72;100853.81;2751089;86;21030;-72
2021/10/14 09:07:31;;;;;;;9.05;6.37;;;;;;;11.83;90.94;100851.64;2766562;86;21094;-73
2021/10/14 09:11:33;;;;;;;9.80;5.70;;;;;;;11.91;90.35;100845.71;2750752;86;21043;-73
2021/10/14 09:15:35;;;;;;;11.00;5.90;;;;;;;12.01;91.62;100841.87;2764671;84;21000;-72
2021/10/14 09:19:38;;;;;;;8.33;6.47;;;;;;;12.09;90.34;100843.42;2748999;85;21017;-72
2021/10/14 09:23:40;;;;;;;8.93;6.40;;;;;;;12.16;90.15;100844.27;2750685;86;21128;-72
2021/10/14 09:27:43;;;;;;;7.60;5.80;;;;;;;12.29;90.53;100846.31;2726263;86;21047;-72
2021/10/14 09:31:53;;;;;;;8.70;5.28;;;;;;;12.39;89.70;100843.28;2748499;86;21031;-72
2021/10/14 09:35:56;;;;;;;7.85;4.15;;;;;;;12.46;89.03;100835.61;2762846;86;21043;-72
2021/10/14 09:40:11;;;;;;;5.50;4.67;;;;;;;12.58;89.20;100835.12;2748375;86;20998;-72
2021/10/14 09:44:20;;;;;;;6.65;5.10;;;;;;;12.68;89.54;100832.55;2750797;86;21083;-72
2021/10/14 09:48:18;;;;;;;6.45;5.62;;;;;;;12.76;88.97;100834.55;2765691;84;21074;-72
2021/10/14 09:52:20;;;;;;;10.85;6.80;;;;;;;12.81;88.49;100827.03;2750539;86;20995;-72
2021/10/14 09:56:23;;;;;;;10.28;7.70;;;;;;;12.82;87.36;100836.23;2765587;86;21098;-72
2021/10/14 10:00:27;;;;;;;10.58;6.20;;;;;;;12.83;87.60;100833.09;2750452;86;21050;-72
2021/10/14 10:04:29;;;;;;;10.70;6.80;;;;;;;12.82;85.74;100835.41;2765660;84;21061;-71
2021/10/14 10:08:36;;;;;;;7.28;6.00;;;;;;;12.77;85.82;100830.44;2763877;86;21090;-72
2021/10/14 10:12:38;;;;;;;7.03;6.20;;;;;;;12.75;85.28;100835.53;2747509;85;21075;-72
2021/10/14 10:16:59;;;;;;;10.05;6.35;;;;;;;12.64;83.93;100829.27;2725587;86;21099;-72
2021/10/14 10:21:04;;;;;;;9.05;6.53;;;;;;;12.59;84.28;100824.80;2763835;86;21067;-72
2021/10/14 10:25:28;;;;;;;9.50;7.50;;;;;;;12.57;84.87;100825.39;2752987;85;21068;-72
2021/10/14 10:29:34;;;;;;;9.58;7.87;;;;;;;12.55;84.24;100814.00;2764307;86;21049;-71
2021/10/14 10:33:53;;;;;;;11.43;8.00;;;;;;;12.49;83.07;100819.84;2729222;87;21087;-72
2021/10/14 10:37:55;;;;;;;9.18;7.30;;;;;;;12.34;82.73;100806.77;2711486;87;21062;-72
2021/10/14 10:42:35;;;;;;;9.93;7.30;;;;;;;12.20;83.48;100800.40;2708503;87;21087;-72
2021/10/14 10:46:37;;;;;;;9.60;7.92;;;;;;;12.17;83.35;100794.81;2711764;86;21063;-72
2021/10/14 10:50:54;;;;;;;11.40;7.75;;;;;;;12.16;83.19;100785.59;2729431;85;21036;-72
2021/10/14 10:54:56;;;;;;;11.18;7.72;;;;;;;12.19;83.68;100784.03;2712819;83;21484;-73
2021/10/14 10:58:58;;;;;;;13.22;8.75;;;;;;;12.25;83.96;100778.19;2659570;89;21016;-72
2021/10/14 11:03:16;;;;;;;10.60;8.30;;;;;;;12.33;83.93;100775.73;2711229;88;21025;-72
2021/10/14 11:07:19;;;;;;;18.48;9.33;;;;;;;12.39;83.70;100769.05;2703854;88;21675;-73
2021/10/14 11:11:21;;;;;;;19.98;10.65;;;;;;;12.47;83.97;100762.59;2704584;88;21079;-73
2021/10/14 11:15:27;;;;;;;14.78;10.63;;;;;;;12.60;84.48;100760.25;2704582;88;21548;-73
2021/10/14 11:19:28;;;;;;;11.13;8.00;;;;;;;12.70;84.41;100754.52;2704555;88;21545;-73
2021/10/14 11:23:37;;;;;;;12.40;8.20;;;;;;;12.83;83.37;100754.33;2707237;87;21061;-73
2021/10/14 11:27:40;;;;;;;11.63;9.35;;;;;;;12.92;82.90;100750.88;2696336;87;21101;-73
2021/10/14 11:31:57;;;;;;;10.13;7.58;;;;;;;12.90;82.03;100754.16;2718179;87;21100;-73
2021/10/14 11:36:06;;;;;;;11.70;8.43;;;;;;;12.89;82.51;100748.97;2672498;89;21092;-73
2021/10/14 11:40:09;;;;;;;9.05;7.22;;;;;;;12.92;84.56;100741.53;2712518;88;21053;-73
2021/10/14 11:44:12;;;;;;;12.05;7.42;;;;;;;12.96;85.87;100736.28;2712573;87;21044;-74
2021/10/14 11:48:34;;;;;;;8.83;7.30;;;;;;;12.97;85.49;100735.80;2712649;87;21033;-73
2021/10/14 11:52:36;;;;;;;10.75;7.58;;;;;;;12.93;85.92;100733.88;2775821;86;21035;-74
2021/10/14 11:56:47;;;;;;;7.28;6.58;;;;;;;12.86;86.02;100734.05;2776002;85;20979;-74
2021/10/14 12:00:48;;;;;;;9.95;7.47;;;;;;;12.77;86.05;100728.14;2774358;86;21035;-74
2021/10/14 12:04:53;;;;;;;10.30;9.05;;;;;;;12.72;86.09;100721.87;2776153;86;21007;-73
2021/10/14 12:08:54;;;;;;;13.13;9.58;;;;;;;12.73;86.45;100715.56;2747519;81;21030;-73
2021/10/14 12:13:06;;;;;;;11.45;7.97;;;;;;;12.75;86.91;100710.07;2775991;85;21046;-73
2021/10/14 12:17:17;;;;;;;12.63;8.98;;;;;;;12.81;86.72;100705.56;2775468;85;21101;-74
2021/10/14 12:21:39;;;;;;;15.60;10.03;;;;;;;12.91;87.05;100694.95;2776378;86;21030;-74
2021/10/14 12:25:42;;;;;;;12.80;9.00;;;;;;;13.04;86.91;100685.39;2745038;85;21032;-74
2021/10/14 12:29:48;;;;;;;13.55;9.80;;;;;;;13.17;86.26;100696.72;2660133;89;21057;-75
2021/10/14 12:33:58;;;;;;;;;;;;;;;13.24;85.06;100697.01;2714528;87;21005;-74
2021/10/14 12:38:11;;;;;;;14.13;8.78;;;;;;;13.18;84.06;100703.75;2705299;87;20136;-74
2021/10/14 12:42:16;;;;;;;13.95;9.08;;;;;;;13.05;84.09;100694.59;2711952;84;21256;-73
2021/10/14 12:55:11;;;;;;;9.15;6.95;;;;;;;13.06;84.61;100688.78;2725891;85;21321;-73
2021/10/14 12:59:15;;;;;;;10.45;7.47;;;;;;;13.13;83.73;100680.58;2732853;85;21031;-76
2021/10/14 13:03:17;;;;;;;9.88;7.80;;;;;;;13.17;83.98;100675.35;2730122;85;21038;-76
2021/10/14 13:07:18;;;;;;;12.35;7.53;;;;;;;13.22;83.63;100668.25;2703296;88;21087;-76
2021/10/14 13:11:20;;;;;;;14.05;9.48;;;;;;;13.26;83.74;100671.86;2702535;88;21048;-71
2021/10/14 13:15:21;;;;;;;18.60;10.85;;;;;;;13.27;83.00;100669.55;2702607;87;21111;-69
2021/10/14 13:19:23;;;;;;;10.43;8.65;;;;;;;13.31;83.22;100667.94;2702771;88;21056;-69
2021/10/14 13:23:25;;;;;;;9.70;7.65;;;;;;;13.33;83.14;100670.84;2664602;88;21084;-70
2021/10/14 13:27:30;;;;;;;14.23;8.28;;;;;;;13.40;82.88;100668.48;2713271;87;21136;-71
2021/10/14 13:31:32;;;;;;;11.48;8.48;;;;;;;13.43;82.48;100667.73;2712939;88;21051;-71
2021/10/14 13:35:33;;;;;;;10.95;7.42;;;;;;;13.43;82.29;100659.72;2712713;88;21011;-70
2021/10/14 13:39:35;;;;;;;6.97;6.28;;;;;;;13.42;82.95;100659.33;2713181;87;21581;-70
2021/10/14 13:43:40;;;;;;;7.35;6.62;;;;;;;13.49;83.43;100652.99;2680947;86;29252;-70
2021/10/14 13:47:43;;;;;;;9.33;7.00;;;;;;;13.48;83.12;100644.63;2689611;86;21081;-70
2021/10/14 13:51:45;;;;;;;3.35;2.72;;;;;;;13.50;83.49;100642.66;2713067;88;21088;-71
2021/10/14 13:55:46;;;;;;;4.37;2.40;;;;;;;13.46;83.78;100634.56;2713178;87;21041;-70
2021/10/14 13:59:48;;;;;;;3.47;2.45;;;;;;;13.45;84.88;100638.22;2692722;86;21094;-70
2021/10/14 14:03:50;;;;;;;3.87;2.47;;;;;;;13.46;85.15;100633.23;2710391;87;21059;-70
2021/10/14 14:07:52;;;;;;;2.47;1.45;;;;;;;13.46;84.93;100635.04;2773341;86;21383;-70
2021/10/14 14:11:53;;;;;;;2.80;2.22;;;;;;;13.46;85.29;100633.23;2773050;86;21765;-71
2021/10/14 14:15:55;;;;;;;3.60;2.08;;;;;;;13.46;84.42;100629.70;2773274;86;21046;-70
2021/10/14 14:19:57;;;;;;;3.60;2.05;;;;;;;13.43;84.45;100625.48;2773102;86;21038;-70
2021/10/14 14:24:00;;;;;;;3.42;2.50;;;;;;;13.34;84.41;100623.58;2759393;84;21018;-70
2021/10/14 14:28:03;;;;;;;5.55;2.87;;;;;;;13.25;85.16;100624.77;2764134;86;21050;-70
2021/10/14 14:32:06;;;;;;;5.70;3.22;;;;;;;13.15;85.54;100622.53;2764553;86;21073;-70
2021/10/14 14:36:08;;;;;;;3.15;2.83;;;;;;;13.07;85.57;100622.37;2764325;86;21043;-70
2021/10/14 14:40:11;;;;;;;3.85;3.33;;;;;;;13.02;86.45;100625.94;2764129;86;21058;-70
2021/10/14 14:44:13;;;;;;;4.37;3.98;;;;;;;12.98;86.38;100622.20;2771612;84;21032;-71
2021/10/14 14:48:16;;;;;;;5.72;4.70;;;;;;;12.97;86.85;100627.66;2773396;86;21120;-70
2021/10/14 14:52:18;;;;;;;6.87;4.00;;;;;;;12.93;87.39;100628.41;2773947;86;21032;-71
2021/10/14 14:56:19;;;;;;;2.85;2.42;;;;;;;12.91;88.14;100627.70;2772487;85;21030;-70
2021/10/14 15:00:21;;;;;;;5.92;4.00;;;;;;;12.86;87.95;100632.59;2775493;84;21062;-70
2021/10/14 15:04:23;;;;;;;3.87;2.98;;;;;;;12.82;87.94;100625.33;2774494;86;21068;-70
2021/10/14 15:08:25;;;;;;;5.75;4.33;;;;;;;12.79;88.66;100621.59;2744869;86;21085;-70
2021/10/14 15:12:27;;;;;;;4.67;3.20;;;;;;;12.78;88.86;100625.75;2773612;85;21041;-71
2021/10/14 15:16:29;;;;;;;5.12;3.77;;;;;;;12.75;89.35;100623.32;2773320;86;21025;-70
2021/10/14 15:20:30;;;;;;;4.12;3.70;;;;;;;12.79;89.84;100616.77;2773900;86;21009;-70
2021/10/14 15:24:33;;;;;;;4.42;3.60;;;;;;;12.81;89.51;100620.14;2768641;85;21025;-70
2021/10/14 15:28:41;;;;;;;6.15;3.65;;;;;;;12.80;89.08;100615.78;2750206;86;21021;-70
2021/10/14 15:32:42;;;;;;;4.92;3.62;;;;;;;12.78;89.51;100613.73;2750007;86;21097;-70
2021/10/14 15:36:45;;;;;;;6.85;3.67;;;;;;;12.79;89.40;100615.43;2750248;86;21018;-70
2021/10/14 15:40:47;;;;;;;3.60;2.77;;;;;;;12.79;89.30;100616.77;2749910;86;21088;-70
2021/10/14 15:44:49;;;;;;;4.17;3.42;;;;;;;12.78;89.26;100618.57;2749114;86;21047;-70
2021/10/14 15:48:51;;;;;;;5.00;3.83;;;;;;;12.78;89.42;100625.75;2749060;86;21067;-70
2021/10/14 15:52:52;;;;;;;4.10;3.70;;;;;;;12.78;89.37;100629.75;2748179;86;21046;-70
2021/10/14 15:56:54;;;;;;;4.03;3.58;;;;;;;12.78;89.57;100632.42;2764695;84;21091;-70
2021/10/14 16:00:56;;;;;;;3.67;3.37;;;;;;;12.74;89.93;100621.16;2764963;85;21042;-70
2021/10/14 16:04:57;;;;;;;6.65;3.17;;;;;;;12.70;90.24;100628.57;2765457;86;21088;-71
2021/10/14 16:09:00;;;;;;;4.67;4.28;;;;;;;12.67;90.56;100626.17;2765366;86;21041;-71
2021/10/14 16:13:04;;;;;;;4.35;3.45;;;;;;;12.61;90.89;100624.50;2766257;84;21127;-70
2021/10/14 16:17:06;;;;;;;8.00;5.67;;;;;;;12.60;91.50;100628.16;2764757;86;21043;-71
2021/10/14 16:21:08;;;;;;;5.92;4.50;;;;;;;12.56;91.75;100622.22;2749541;86;21130;-71
2021/10/14 16:25:11;;;;;;;5.85;4.78;;;;;;;12.51;92.06;100616.44;2757828;85;21061;-70
2021/10/14 16:29:12;;;;;;;10.70;5.22;;;;;;;12.50;92.15;100616.94;2749287;85;21055;-70
2021/10/14 16:33:29;;;;;;;6.35;4.78;;;;;;;12.49;91.72;100609.91;2777820;85;21085;-70
2021/10/14 16:37:20;;;;;;;4.78;4.15;;;;;;;12.47;91.73;100606.50;2775402;85;21054;-70
2021/10/14 16:41:24;;;;;;;5.08;4.28;;;;;;;12.46;91.97;100599.48;2777760;85;21110;-70
2021/10/14 16:45:26;;;;;;;6.58;4.80;;;;;;;12.47;91.96;100601.67;2779293;85;21034;-69
2021/10/14 16:49:29;;;;;;;7.55;5.08;;;;;;;12.50;91.84;100608.08;2781695;85;21027;-70
2021/10/14 16:53:31;;;;;;;5.95;4.60;;;;;;;12.52;91.87;100616.32;2785638;85;21044;-70
2021/10/14 16:57:34;;;;;;;6.53;4.85;;;;;;;12.56;91.60;100611.55;2785527;85;21044;-70
2021/10/14 17:01:38;;;;;;;4.97;4.58;;;;;;;12.55;91.64;100609.86;2785453;85;21096;-70
2021/10/14 17:05:42;;;;;;;5.12;3.10;;;;;;;12.58;91.54;100617.63;2785605;85;21060;-70
2021/10/14 17:09:46;;;;;;;3.30;2.98;;;;;;;12.51;91.44;100602.63;2784495;85;21066;-70
2021/10/14 17:13:50;;;;;;;4.47;3.58;;;;;;;12.50;91.79;100610.75;2779161;85;21073;-70
2021/10/14 17:17:52;;;;;;;7.45;4.03;;;;;;;12.55;91.91;100605.86;2778280;84;21006;-69
2021/10/14 17:22:05;;;;;;;7.75;5.40;;;;;;;12.57;91.70;100608.77;2779902;83;21014;-68
2021/10/14 17:39:01;;;;;;;6.50;5.67;;;;;;;12.91;90.62;100599.66;2761885;86;21049;-67
2021/10/14 17:43:05;;;;;;;8.25;6.62;;;;;;;12.94;90.41;100603.39;2760762;85;21067;-67
2021/10/14 17:47:05;;;;;;;7.28;5.72;;;;;;;12.97;89.93;100601.82;2761047;85;21066;-67
2021/10/14 17:51:09;;;;;;;9.20;6.12;;;;;;;13.03;90.07;100598.25;2730633;86;21647;-67
2021/10/14 17:55:11;;;;;;;6.08;4.72;;;;;;;13.04;89.58;100591.93;2651850;88;21075;-66
2021/10/14 17:59:12;;;;;;;6.45;5.08;;;;;;;13.03;89.35;100592.91;2713668;87;21067;-67
2021/10/14 18:03:25;;;;;;;6.60;5.45;;;;;;;13.06;89.41;100584.62;2713889;86;21102;-67
2021/10/14 18:07:39;;;;;;;6.78;5.80;;;;;;;13.06;89.74;100584.12;2711865;87;21107;-68
2021/10/14 18:38:12;;;;;;;8.85;7.08;;;;;;;13.08;88.91;100578.66;2745011;86;21071;-67
2021/10/14 18:41:36;;;;;;;9.65;7.95;;;;;;;13.09;89.06;100573.67;2740968;86;21257;-66
2021/10/14 18:45:39;;;;;;;10.43;7.45;;;;;;;13.09;89.17;100569.19;2760266;86;21030;-66
2021/10/14 18:49:42;;;;;;;9.18;8.28;;;;;;;13.09;88.99;100565.18;2733913;85;21074;-67
2021/10/14 18:53:43;;;;;;;12.47;8.93;;;;;;;13.07;89.23;100553.80;2739241;86;21253;-66
2021/10/14 18:57:46;;;;;;;11.25;8.78;;;;;;;13.08;89.49;100561.30;2748036;86;20978;-66
2021/10/14 19:01:47;;;;;;;9.50;8.23;;;;;;;13.05;89.63;100562.91;2744562;86;21029;-66
2021/10/14 19:05:51;;;;;;;10.08;7.75;;;;;;;13.03;89.93;100563.03;2743944;86;21060;-68
2021/10/14 19:14:05;;;;;;;14.58;9.80;;;;;;;13.05;90.29;100558.91;2712841;86;22317;-66
2021/10/14 19:22:44;;;;;;;13.98;9.00;;;;;;;12.98;91.01;100559.45;2745067;86;21057;-66
2021/10/14 20:22:07;;;;;;;13.28;9.58;;;;;;;13.26;90.96;100558.33;2748486;86;21167;-66
2021/10/14 20:26:09;;;;;;;12.55;7.80;;;;;;;13.31;90.76;100560.60;2732769;84;21049;-68
2021/10/14 20:30:12;;;;;;;8.80;7.87;;;;;;;13.36;90.74;100565.51;2768676;86;21081;-67
2021/10/14 20:34:25;;;;;;;10.60;8.78;;;;;;;13.40;90.39;100565.61;2768716;86;21068;-68
2021/10/14 20:38:17;;;;;;;7.83;6.70;;;;;;;13.43;90.39;100564.03;2767503;86;21076;-66
2021/10/14 20:42:22;;;;;;;7.92;6.53;;;;;;;13.46;90.27;100555.73;2752971;84;21049;-66
2021/10/14 20:46:25;;;;;;;7.62;6.85;;;;;;;13.51;89.88;100553.48;2754717;84;21045;-67